Time;durP1;ratioP1;P1;durP2;ratioP2;P2;SDS_P1;SDS_P2;PMS_P1;PMS_P2;Temp;Humidity;BMP_temperature;BMP_pressure;BME280_temperature;BME280_humidity;BME280_pressure;Samples;Min_cycle;Max_cycle;Signal;HPM_P1;HPM_P2
2020/12/12 00:01:02;;;;;;;5.47;3.92;;;;;;;4.91;93.11;97761.00;5075109;28;20059;-77
2020/12/12 00:03:28;;;;;;;5.68;4.28;;;;;;;4.91;93.17;97754.88;5074757;28;20131;-77
2020/12/12 00:05:55;;;;;;;5.32;3.70;;;;;;;4.97;93.10;97764.97;5075821;28;20426;-77
2020/12/12 00:08:21;;;;;;;4.90;3.95;;;;;;;5.00;92.54;97768.22;5075671;28;20056;-77
2020/12/12 00:10:48;;;;;;;5.30;4.10;;;;;;;4.96;92.47;97764.13;5075776;28;20056;-77
2020/12/12 00:13:15;;;;;;;6.07;4.03;;;;;;;4.99;92.72;97769.19;5075660;28;20045;-77
2020/12/12 00:15:43;;;;;;;4.13;3.70;;;;;;;4.98;92.91;97772.81;5076302;28;20086;-76
2020/12/12 00:18:09;;;;;;;3.72;3.33;;;;;;;5.00;92.81;97770.03;5076156;28;20056;-76
2020/12/12 00:20:36;;;;;;;6.45;3.20;;;;;;;4.96;92.58;97768.59;5077008;28;20350;-77
2020/12/12 00:23:02;;;;;;;4.35;3.38;;;;;;;5.03;92.48;97772.44;5077396;28;20059;-78
2020/12/12 00:25:28;;;;;;;5.18;3.20;;;;;;;5.07;92.72;97775.69;5077156;28;20055;-77
2020/12/12 00:27:54;;;;;;;4.68;3.28;;;;;;;4.99;92.66;97763.91;5077254;28;20063;-76
2020/12/12 00:30:21;;;;;;;4.53;3.42;;;;;;;5.13;92.46;97775.22;5060586;28;20109;-77
2020/12/12 00:32:47;;;;;;;5.30;3.65;;;;;;;5.08;92.69;97772.94;5076852;28;20048;-76
2020/12/12 00:35:13;;;;;;;5.68;3.88;;;;;;;5.14;92.74;97782.19;5075341;28;20048;-76
2020/12/12 00:37:39;;;;;;;6.45;3.85;;;;;;;5.07;92.59;97765.94;5076332;28;20056;-77
2020/12/12 00:40:06;;;;;;;4.03;3.47;;;;;;;5.12;92.14;97771.72;5074970;28;20392;-77
2020/12/12 00:42:32;;;;;;;5.50;3.72;;;;;;;5.21;92.36;97788.69;5075970;28;20055;-78
2020/12/12 00:44:58;;;;;;;5.35;3.78;;;;;;;5.15;92.62;97782.09;5077879;28;20071;-78
2020/12/12 00:47:25;;;;;;;6.10;3.75;;;;;;;5.15;92.99;97789.16;5080064;28;20059;-77
2020/12/12 00:49:51;;;;;;;5.75;4.10;;;;;;;5.21;92.08;97788.69;5080759;28;20106;-77
2020/12/12 00:52:17;;;;;;;5.30;3.65;;;;;;;5.13;92.02;97775.22;5081411;28;20057;-77
2020/12/12 00:54:43;;;;;;;5.15;3.55;;;;;;;5.14;92.64;97798.06;5080897;28;20053;-76
2020/12/12 00:57:10;;;;;;;4.38;3.47;;;;;;;5.16;92.31;97788.19;5081559;28;20072;-76
2020/12/12 00:59:36;;;;;;;4.43;4.03;;;;;;;5.19;93.18;97806.50;5083694;28;20381;-77
2020/12/12 01:02:03;;;;;;;5.72;3.92;;;;;;;5.11;92.93;97788.56;5080917;28;20397;-78
2020/12/12 01:04:29;;;;;;;5.00;4.10;;;;;;;5.11;93.15;97788.56;5079898;28;20079;-77
2020/12/12 01:06:55;;;;;;;4.68;3.58;;;;;;;5.23;93.04;97797.34;5077552;28;20049;-77
2020/12/12 01:09:22;;;;;;;4.00;3.60;;;;;;;5.27;92.71;97798.78;5077329;28;20109;-77
2020/12/12 01:11:48;;;;;;;5.80;3.80;;;;;;;5.27;92.89;97798.78;5078955;28;20495;-78
2020/12/12 01:14:14;;;;;;;4.63;3.53;;;;;;;5.24;92.66;97790.25;5077822;28;20048;-76
2020/12/12 01:16:40;;;;;;;4.25;3.85;;;;;;;5.51;91.30;97799.66;5079193;28;20045;-76
2020/12/12 01:19:06;;;;;;;4.57;3.50;;;;;;;5.47;92.12;97807.00;5078968;28;20133;-77
2020/12/12 01:21:34;;;;;;;6.38;3.70;;;;;;;5.47;92.22;97809.63;5078579;28;20140;-77
2020/12/12 01:24:00;;;;;;;4.07;3.38;;;;;;;5.46;91.93;97805.31;5077546;28;20048;-78
2020/12/12 01:26:26;;;;;;;4.40;3.92;;;;;;;5.44;92.78;97810.72;5078501;28;20052;-78
2020/12/12 01:28:52;;;;;;;6.43;3.53;;;;;;;5.45;92.26;97803.59;5078669;28;20052;-77
2020/12/12 01:31:18;;;;;;;4.32;3.75;;;;;;;5.54;92.06;97816.13;5078353;28;20082;-78
2020/12/12 01:33:44;;;;;;;5.53;3.42;;;;;;;5.52;92.30;97812.78;5078276;28;20055;-77
2020/12/12 01:36:11;;;;;;;5.90;3.47;;;;;;;5.53;92.50;97816.25;5078444;28;20055;-76
2020/12/12 01:38:37;;;;;;;4.15;3.75;;;;;;;5.55;92.21;97822.25;5078528;28;20052;-78
2020/12/12 01:41:04;;;;;;;5.40;3.92;;;;;;;5.53;92.32;97825.03;5078314;28;20056;-77
2020/12/12 01:43:30;;;;;;;4.20;3.80;;;;;;;5.47;93.10;97822.00;5078964;28;20094;-77
2020/12/12 01:45:57;;;;;;;3.90;3.47;;;;;;;5.52;92.73;97835.72;5078542;28;20113;-77
2020/12/12 01:48:24;;;;;;;4.40;3.92;;;;;;;5.56;92.87;97835.38;5078358;28;20052;-78
2020/12/12 01:50:50;;;;;;;5.07;4.13;;;;;;;5.57;92.38;97837.03;5078174;28;20053;-77
2020/12/12 01:53:19;;;;;;;4.55;3.85;;;;;;;5.62;92.31;97838.50;5078046;28;20048;-77
2020/12/12 01:55:47;;;;;;;5.43;4.10;;;;;;;5.53;92.41;97827.69;5077891;28;20052;-77
2020/12/12 01:58:17;;;;;;;8.77;4.28;;;;;;;5.50;92.54;97817.31;5076615;28;20056;-77
2020/12/12 02:00:43;;;;;;;6.13;4.13;;;;;;;5.62;92.89;97843.78;5077975;28;20057;-77
2020/12/12 02:03:11;;;;;;;5.93;3.85;;;;;;;5.60;93.03;97845.72;5078092;28;20044;-77
2020/12/12 02:05:38;;;;;;;4.93;4.20;;;;;;;5.53;93.22;97837.41;5076964;28;20049;-76
2020/12/12 02:08:16;;;;;;;4.90;4.40;;;;;;;5.57;92.96;97839.69;5077618;28;20068;-77
2020/12/12 02:10:44;;;;;;;4.40;4.00;;;;;;;5.63;92.57;97851.63;5077614;28;20057;-78
2020/12/12 02:13:11;;;;;;;6.55;4.25;;;;;;;5.62;92.88;97847.28;5077894;28;20110;-77
2020/12/12 02:15:38;;;;;;;4.75;4.30;;;;;;;5.55;92.06;97828.41;5077498;28;20074;-77
2020/12/12 02:18:18;;;;;;;5.07;4.32;;;;;;;5.65;92.37;97846.19;5077615;28;20056;-77
2020/12/12 02:21:00;;;;;;;4.93;3.97;;;;;;;5.66;92.52;97850.53;5079064;28;20059;-77
2020/12/12 02:23:27;;;;;;;6.22;4.25;;;;;;;5.64;92.42;97850.66;5077656;28;20040;-77
2020/12/12 02:25:55;;;;;;;6.10;4.90;;;;;;;5.62;92.70;97849.91;5077371;28;20048;-77
2020/12/12 02:28:25;;;;;;;4.70;4.20;;;;;;;5.60;92.59;97853.66;5077412;28;20430;-76
2020/12/12 02:30:51;;;;;;;5.95;4.47;;;;;;;5.63;92.36;97861.34;5077362;28;20048;-76
2020/12/12 02:33:18;;;;;;;5.25;4.22;;;;;;;5.65;92.58;97856.78;5077318;28;20453;-76
2020/12/12 02:35:44;;;;;;;6.07;4.60;;;;;;;5.66;93.01;97853.19;5077094;28;20053;-76
2020/12/12 02:38:11;;;;;;;5.10;4.60;;;;;;;5.62;92.47;97843.78;5077263;28;20354;-77
2020/12/12 02:40:38;;;;;;;5.15;4.63;;;;;;;5.66;92.20;97853.19;5077158;28;20055;-76
2020/12/12 02:43:10;;;;;;;5.63;4.72;;;;;;;5.71;92.54;97853.66;5076996;28;20479;-76
2020/12/12 02:45:36;;;;;;;5.78;4.40;;;;;;;5.75;92.24;97854.25;5076975;28;20052;-77
2020/12/12 02:48:03;;;;;;;5.35;4.68;;;;;;;5.75;92.39;97859.56;5075867;28;20048;-76
2020/12/12 02:50:29;;;;;;;5.00;4.53;;;;;;;5.64;93.25;97852.44;5076832;28;20495;-76
2020/12/12 02:52:55;;;;;;;7.45;5.30;;;;;;;5.68;93.40;97860.03;5076067;28;20311;-76
2020/12/12 02:55:21;;;;;;;5.78;5.07;;;;;;;5.68;93.95;97864.50;5075905;28;20048;-75
2020/12/12 02:57:48;;;;;;;6.03;4.90;;;;;;;5.62;94.43;97854.38;5075679;28;20048;-76
2020/12/12 03:00:18;;;;;;;5.40;4.60;;;;;;;5.64;94.33;97863.03;5076715;28;20139;-76
2020/12/12 03:02:44;;;;;;;7.00;4.65;;;;;;;5.58;94.57;97857.25;5076469;28;20074;-75
2020/12/12 03:05:12;;;;;;;6.05;5.13;;;;;;;5.62;94.78;97870.25;5075850;28;20048;-76
2020/12/12 03:07:38;;;;;;;6.68;5.10;;;;;;;5.62;95.07;97870.25;5076602;28;20063;-76
2020/12/12 03:10:06;;;;;;;6.25;5.35;;;;;;;5.63;94.92;97866.66;5076428;28;20061;-76
2020/12/12 03:12:38;;;;;;;5.78;5.18;;;;;;;5.57;95.32;97879.38;5076721;28;20056;-76
2020/12/12 03:15:06;;;;;;;6.10;4.95;;;;;;;5.57;95.57;97873.28;5076699;28;20101;-75
2020/12/12 03:17:33;;;;;;;7.75;5.07;;;;;;;5.54;95.58;97874.34;5076579;28;20056;-77
2020/12/12 03:20:01;;;;;;;6.40;5.10;;;;;;;5.54;95.57;97874.34;5076501;28;20110;-77
2020/12/12 03:22:27;;;;;;;6.05;5.10;;;;;;;5.52;95.66;97870.97;5075210;28;20057;-77
2020/12/12 03:24:53;;;;;;;6.88;5.60;;;;;;;5.53;95.58;97880.59;5076373;28;20045;-76
2020/12/12 03:27:19;;;;;;;6.72;5.40;;;;;;;5.57;95.56;97881.22;5076279;28;20052;-76
2020/12/12 03:29:45;;;;;;;6.15;5.32;;;;;;;5.53;95.62;97875.31;5076069;28;20165;-77
2020/12/12 03:32:28;;;;;;;5.65;4.80;;;;;;;5.53;95.49;97882.38;5075776;28;20082;-76
2020/12/12 03:34:55;;;;;;;5.82;4.90;;;;;;;5.58;94.72;97885.53;5076171;28;20132;-76
2020/12/12 03:37:21;;;;;;;6.45;4.97;;;;;;;5.59;94.53;97881.91;5076136;28;20098;-77
2020/12/12 03:39:47;;;;;;;6.97;4.97;;;;;;;5.55;94.96;97885.75;5076007;28;20048;-77
2020/12/12 03:42:13;;;;;;;5.32;4.38;;;;;;;5.60;94.98;97898.66;5074894;28;20106;-77
2020/12/12 03:44:39;;;;;;;5.25;4.75;;;;;;;5.60;94.36;97898.66;5075736;28;20121;-77
2020/12/12 03:47:05;;;;;;;6.40;5.00;;;;;;;5.55;94.98;97905.13;5075585;28;20457;-77
2020/12/12 03:49:33;;;;;;;6.50;4.78;;;;;;;5.52;95.02;97901.88;5075985;28;20059;-78
2020/12/12 03:52:00;;;;;;;8.40;4.85;;;;;;;5.52;95.23;97897.44;5075639;28;20342;-77
2020/12/12 03:54:27;;;;;;;7.03;4.80;;;;;;;5.56;95.25;97898.06;5074672;28;20046;-77
2020/12/12 03:56:54;;;;;;;6.68;4.97;;;;;;;5.57;95.00;97900.56;5074464;28;20079;-77
2020/12/12 03:59:20;;;;;;;5.10;4.55;;;;;;;5.56;95.53;97895.41;5075821;28;20060;-77
2020/12/12 04:01:47;;;;;;;4.85;4.03;;;;;;;5.60;95.12;97901.31;5075726;28;20073;-77
2020/12/12 04:04:14;;;;;;;6.22;4.30;;;;;;;5.61;95.21;97901.16;5075361;28;20045;-77
2020/12/12 04:06:40;;;;;;;5.07;4.35;;;;;;;5.66;95.06;97911.41;5075658;28;20048;-77
2020/12/12 04:09:08;;;;;;;4.78;4.28;;;;;;;5.65;95.16;97912.34;5075426;28;20468;-77
2020/12/12 04:11:34;;;;;;;5.35;4.75;;;;;;;5.62;95.07;97909.97;5074193;28;20102;-77
2020/12/12 04:14:00;;;;;;;5.50;4.90;;;;;;;5.58;95.42;97898.75;5075326;28;20430;-78
2020/12/12 04:16:28;;;;;;;5.78;4.68;;;;;;;5.67;95.49;97919.22;5075489;28;20048;-77
2020/12/12 04:18:55;;;;;;;5.20;4.32;;;;;;;5.64;94.92;97927.41;5074184;28;20102;-77
2020/12/12 04:21:23;;;;;;;5.10;4.57;;;;;;;5.66;95.02;97922.81;5075245;28;20060;-77
2020/12/12 04:23:49;;;;;;;5.57;4.22;;;;;;;5.62;95.16;97924.00;5075259;28;20063;-77
2020/12/12 04:26:15;;;;;;;5.88;4.10;;;;;;;5.74;94.67;97937.28;5074430;28;20125;-77
2020/12/12 04:28:41;;;;;;;5.53;4.60;;;;;;;5.68;94.74;97931.47;5075402;28;20061;-77
2020/12/12 04:31:08;;;;;;;4.95;4.10;;;;;;;5.69;94.48;97940.28;5075284;28;20128;-77
2020/12/12 04:33:35;;;;;;;5.00;4.03;;;;;;;5.70;94.62;97939.31;5075386;28;20049;-77
2020/12/12 04:36:03;;;;;;;4.28;3.78;;;;;;;5.70;94.51;97936.66;5074132;28;20052;-77
2020/12/12 04:38:32;;;;;;;5.07;4.30;;;;;;;5.68;94.65;97942.06;5074998;28;20053;-77
2020/12/12 04:41:09;;;;;;;6.15;4.50;;;;;;;5.66;95.50;97940.53;5075078;28;20051;-77
2020/12/12 04:43:39;;;;;;;4.25;3.75;;;;;;;5.63;95.72;97940.75;5073744;28;20048;-77
2020/12/12 04:46:05;;;;;;;4.35;3.58;;;;;;;5.65;95.43;97944.09;5075187;28;20052;-77
2020/12/12 04:48:32;;;;;;;7.30;4.38;;;;;;;5.70;94.64;97942.81;5074800;28;20420;-78
2020/12/12 04:50:58;;;;;;;5.72;3.95;;;;;;;5.68;94.97;97949.19;5075155;28;20499;-75
2020/12/12 04:53:25;;;;;;;7.13;4.07;;;;;;;5.55;95.23;97936.03;5074916;28;20052;-76
2020/12/12 04:55:55;;;;;;;5.35;4.10;;;;;;;5.66;95.38;97948.47;5075023;28;20519;-76
2020/12/12 04:58:26;;;;;;;5.35;3.78;;;;;;;5.69;94.78;97950.88;5074767;28;20045;-77
2020/12/12 05:00:53;;;;;;;4.35;3.78;;;;;;;5.67;94.93;97958.09;5073973;28;20102;-77
2020/12/12 05:03:22;;;;;;;4.85;3.45;;;;;;;5.50;94.97;97932.91;5074946;28;20049;-76
2020/12/12 05:05:49;;;;;;;4.68;3.70;;;;;;;5.70;94.64;97971.06;5075002;28;20106;-77
2020/12/12 05:08:15;;;;;;;6.03;3.70;;;;;;;5.65;94.99;97960.84;5074643;28;20131;-77
2020/12/12 05:10:49;;;;;;;5.28;4.00;;;;;;;5.64;94.92;97964.47;5074854;28;20063;-77
2020/12/12 05:13:24;;;;;;;4.20;3.80;;;;;;;5.67;94.71;97966.03;5074971;28;20041;-77
2020/12/12 05:15:53;;;;;;;5.95;3.70;;;;;;;5.69;95.17;97970.25;5073936;28;20340;-77
2020/12/12 05:18:19;;;;;;;4.35;3.63;;;;;;;5.63;95.18;97961.91;5074780;28;20051;-77
2020/12/12 05:20:46;;;;;;;4.68;3.85;;;;;;;5.67;95.13;97982.72;5074865;28;20049;-77
2020/12/12 05:23:31;;;;;;;8.90;3.95;;;;;;;5.70;95.27;97985.16;5074628;28;20048;-77
2020/12/12 05:25:57;;;;;;;4.82;4.10;;;;;;;5.65;95.14;97975.88;5075015;28;20106;-77
2020/12/12 05:28:24;;;;;;;5.68;4.03;;;;;;;5.72;95.11;97992.97;5074616;28;20059;-77
2020/12/12 05:30:52;;;;;;;6.53;4.10;;;;;;;5.66;95.28;97983.69;5074497;28;20444;-77
2020/12/12 05:33:23;;;;;;;6.93;4.40;;;;;;;5.65;95.27;97992.59;5074762;28;20041;-77
2020/12/12 05:35:51;;;;;;;5.18;3.47;;;;;;;5.66;95.05;97982.88;5074564;28;20211;-77
2020/12/12 05:38:18;;;;;;;4.05;3.65;;;;;;;5.71;94.48;97986.84;5074432;28;20114;-77
2020/12/12 05:40:52;;;;;;;3.95;3.55;;;;;;;5.75;94.95;98000.69;5074760;28;20110;-77
2020/12/12 05:43:18;;;;;;;7.78;4.03;;;;;;;5.71;94.87;97992.13;5057298;28;20186;-76
2020/12/12 05:45:44;;;;;;;4.38;3.92;;;;;;;5.78;95.01;98004.91;5074424;28;20056;-77
2020/12/12 05:48:14;;;;;;;7.13;3.30;;;;;;;5.82;94.81;98004.56;5074443;28;20444;-77
2020/12/12 05:50:40;;;;;;;4.57;3.72;;;;;;;5.75;94.54;98002.47;5074481;28;20426;-76
2020/12/12 05:53:06;;;;;;;4.43;3.58;;;;;;;5.80;95.03;98005.63;5075431;28;20098;-76
2020/12/12 05:55:34;;;;;;;5.70;3.88;;;;;;;5.81;94.65;98008.16;5080672;28;20051;-78
2020/12/12 05:58:03;;;;;;;4.63;3.33;;;;;;;5.75;93.97;98008.63;5081929;28;20063;-77
2020/12/12 06:00:31;;;;;;;3.60;3.10;;;;;;;5.80;94.27;98014.44;5080862;28;20327;-78
2020/12/12 06:03:20;;;;;;;4.07;3.17;;;;;;;5.73;94.49;98004.41;5081912;28;20056;-76
2020/12/12 06:05:54;;;;;;;4.72;3.20;;;;;;;5.75;94.92;98019.22;5079316;28;20341;-76
2020/12/12 06:09:04;;;;;;;5.35;3.38;;;;;;;5.82;94.52;98025.72;5087061;28;20116;-76
2020/12/12 06:11:36;;;;;;;6.43;3.28;;;;;;;5.82;94.27;98028.38;5088614;28;20056;-76
2020/12/12 06:14:04;;;;;;;5.38;2.97;;;;;;;5.82;93.96;98030.16;5093015;28;20052;-76
2020/12/12 06:16:41;;;;;;;4.43;3.50;;;;;;;5.80;94.41;98045.34;5089380;28;20056;-76
2020/12/12 06:19:15;;;;;;;6.45;3.45;;;;;;;5.84;94.50;98044.97;5089928;28;20135;-76
2020/12/12 06:21:46;;;;;;;5.47;3.30;;;;;;;5.77;94.51;98054.34;5057432;28;20056;-76
2020/12/12 06:24:18;;;;;;;5.53;3.80;;;;;;;5.76;94.01;98051.81;5065471;28;20439;-76
2020/12/12 06:26:59;;;;;;;4.55;3.55;;;;;;;5.79;93.73;98049.81;5057723;28;20059;-75
2020/12/12 06:29:28;;;;;;;5.55;3.63;;;;;;;5.79;93.91;98047.16;5058955;28;20053;-78
2020/12/12 06:31:55;;;;;;;4.78;3.47;;;;;;;5.78;93.98;98053.38;5058241;28;20132;-79
2020/12/12 06:34:47;;;;;;;4.30;3.60;;;;;;;5.77;93.51;98041.13;5056981;28;20049;-78
2020/12/12 06:37:39;;;;;;;4.30;3.67;;;;;;;5.78;94.01;98065.78;5056562;28;20119;-79
2020/12/12 06:40:16;;;;;;;5.45;3.38;;;;;;;5.70;93.67;98053.97;5052843;28;20051;-78
2020/12/12 06:42:45;;;;;;;4.35;3.25;;;;;;;5.74;93.11;98054.59;5057459;28;20190;-77
2020/12/12 06:45:17;;;;;;;6.32;4.00;;;;;;;5.79;93.64;98060.41;5056835;28;20480;-78
2020/12/12 06:47:49;;;;;;;6.47;3.63;;;;;;;5.77;93.75;98074.69;5057334;28;20053;-79
2020/12/12 06:50:22;;;;;;;4.85;3.53;;;;;;;5.82;93.73;98077.81;5056440;28;20053;-78
2020/12/12 06:52:50;;;;;;;5.63;3.30;;;;;;;5.82;93.93;98072.53;5057253;28;20094;-78
2020/12/12 06:55:18;;;;;;;5.70;3.83;;;;;;;5.68;93.60;98057.69;5057327;28;20107;-80
2020/12/12 06:57:46;;;;;;;4.93;3.65;;;;;;;5.69;93.51;98060.25;5056440;28;20056;-78
2020/12/12 07:00:29;;;;;;;5.07;3.53;;;;;;;5.83;93.83;98090.94;5057509;28;20056;-80
2020/12/12 07:03:02;;;;;;;6.32;3.95;;;;;;;5.77;94.17;98088.75;5056054;28;20060;-75
2020/12/12 07:05:36;;;;;;;7.18;3.95;;;;;;;5.82;93.93;98091.91;5056890;28;20053;-77
2020/12/12 07:08:09;;;;;;;10.95;4.75;;;;;;;5.81;94.30;98105.25;5054955;28;20052;-77
2020/12/12 07:10:40;;;;;;;6.55;4.20;;;;;;;5.88;93.27;98101.19;5056373;28;20063;-78
2020/12/12 07:13:08;;;;;;;7.47;5.07;;;;;;;5.85;93.42;98110.22;5056285;28;20091;-77
2020/12/12 07:15:38;;;;;;;7.93;4.72;;;;;;;5.82;93.81;98113.09;5055437;28;20052;-76
2020/12/12 07:18:12;;;;;;;6.53;4.80;;;;;;;5.80;93.80;98115.03;5056044;28;20138;-77
2020/12/12 07:20:44;;;;;;;8.60;4.97;;;;;;;5.80;93.65;98122.97;5056477;28;20059;-78
2020/12/12 07:23:11;;;;;;;7.88;5.00;;;;;;;5.82;93.76;98130.78;5059498;28;20357;-75
2020/12/12 07:25:37;;;;;;;8.07;4.68;;;;;;;5.83;93.56;98124.53;5044361;28;20041;-77
2020/12/12 07:28:05;;;;;;;8.35;5.40;;;;;;;5.81;93.87;98122.00;5052200;28;20061;-74
2020/12/12 07:30:34;;;;;;;8.32;5.68;;;;;;;5.80;93.97;98128.25;5045958;28;20053;-76
2020/12/12 07:33:02;;;;;;;11.90;5.80;;;;;;;5.88;94.03;98142.72;5044015;28;20316;-77
2020/12/12 07:35:32;;;;;;;11.63;6.30;;;;;;;5.87;94.20;98144.53;5047378;28;20049;-77
2020/12/12 07:38:03;;;;;;;9.80;6.32;;;;;;;5.85;94.42;98136.69;5042683;28;20053;-77
2020/12/12 07:40:35;;;;;;;9.68;6.28;;;;;;;5.90;94.11;98154.91;5036078;28;20105;-80
2020/12/12 07:43:10;;;;;;;10.40;6.07;;;;;;;5.99;93.72;98158.66;5044779;28;20053;-79
2020/12/12 07:48:23;;;;;;;9.02;5.43;;;;;;;5.97;93.88;98169.38;5035894;28;20144;-79
2020/12/12 07:50:49;;;;;;;10.60;6.22;;;;;;;6.05;93.32;98162.69;5040755;28;20045;-78
2020/12/12 07:53:18;;;;;;;11.05;5.85;;;;;;;5.98;93.86;98165.75;5038876;28;20410;-79
2020/12/12 07:55:58;;;;;;;12.02;5.72;;;;;;;5.96;93.69;98170.34;5039497;28;20049;-76
2020/12/12 07:58:27;;;;;;;11.43;6.57;;;;;;;6.02;93.71;98177.00;5055837;28;20072;-78
2020/12/12 08:01:05;;;;;;;13.07;8.38;;;;;;;6.00;93.77;98178.91;5046535;28;20068;-79
2020/12/12 08:03:46;;;;;;;12.30;6.75;;;;;;;5.90;93.79;98167.28;5035698;28;20041;-78
2020/12/12 08:06:12;;;;;;;12.52;6.13;;;;;;;5.91;93.79;98175.13;5034609;28;20136;-77
2020/12/12 08:08:38;;;;;;;11.15;6.30;;;;;;;5.95;94.03;98173.91;5035505;28;20461;-77
2020/12/12 08:11:06;;;;;;;16.75;6.93;;;;;;;5.99;93.62;98201.00;5037948;28;20061;-78
2020/12/12 08:13:33;;;;;;;13.75;6.45;;;;;;;5.96;94.01;98193.31;5055734;28;20049;-78
2020/12/12 08:16:12;;;;;;;12.93;6.38;;;;;;;5.83;93.97;98180.13;5054656;28;20053;-80
2020/12/12 08:18:39;;;;;;;12.13;6.70;;;;;;;5.84;93.89;98198.53;5038550;28;20049;-79
2020/12/12 08:21:13;;;;;;;13.02;6.63;;;;;;;5.64;93.70;98192.06;5051612;28;20345;-78
2020/12/12 08:23:41;;;;;;;14.77;7.60;;;;;;;5.65;94.62;98200.81;5062781;28;20049;-78
2020/12/12 08:26:11;;;;;;;15.05;6.85;;;;;;;5.58;94.27;98209.22;5073828;28;20048;-77
2020/12/12 08:28:38;;;;;;;13.55;6.80;;;;;;;5.53;94.53;98210.50;5065789;28;20056;-80
2020/12/12 08:31:15;;;;;;;14.15;7.00;;;;;;;5.43;94.34;98199.72;5065480;28;20053;-79
2020/12/12 08:33:43;;;;;;;13.02;6.28;;;;;;;5.44;94.67;98217.28;5064917;28;20049;-78
2020/12/12 08:36:23;;;;;;;12.45;6.95;;;;;;;5.45;94.80;98224.28;5062240;28;20044;-78
2020/12/12 08:38:54;;;;;;;13.38;7.38;;;;;;;5.42;94.82;98232.44;5066625;28;20053;-79
2020/12/12 08:41:26;;;;;;;13.48;7.65;;;;;;;5.37;94.89;98231.91;5052477;28;20426;-79
2020/12/12 08:43:53;;;;;;;14.00;7.95;;;;;;;5.39;94.45;98244.09;5060911;28;20041;-78
2020/12/12 08:46:19;;;;;;;12.23;7.30;;;;;;;5.36;94.73;98241.66;5057771;28;20044;-76
2020/12/12 08:48:45;;;;;;;14.57;6.85;;;;;;;5.30;94.65;98248.22;5066196;28;20060;-78
2020/12/12 08:51:11;;;;;;;15.35;7.30;;;;;;;5.34;94.71;98253.31;5066764;28;20136;-78
2020/12/12 08:53:46;;;;;;;11.50;6.97;;;;;;;5.40;94.84;98256.34;5075740;28;20048;-77
2020/12/12 08:56:23;;;;;;;15.00;7.60;;;;;;;5.46;94.81;98260.38;5076902;28;20056;-78
2020/12/12 08:58:51;;;;;;;14.40;8.63;;;;;;;5.57;95.06;98264.91;5073343;28;20048;-79
2020/12/12 09:01:39;;;;;;;12.95;7.68;;;;;;;5.69;94.74;98265.84;5061379;28;20052;-79
2020/12/12 09:04:09;;;;;;;13.80;7.68;;;;;;;5.78;94.69;98266.97;5067576;28;20041;-75
2020/12/12 09:06:41;;;;;;;13.98;8.23;;;;;;;5.89;94.56;98269.69;5059202;28;20429;-79
2020/12/12 09:09:14;;;;;;;12.75;7.93;;;;;;;5.94;95.01;98261.44;5064530;28;20055;-83
2020/12/12 09:11:47;;;;;;;14.45;7.88;;;;;;;6.16;94.31;98281.91;5066146;28;20076;-78
2020/12/12 09:14:14;;;;;;;17.67;8.32;;;;;;;6.26;94.33;98290.03;5064095;28;20439;-79
2020/12/12 09:16:55;;;;;;;14.35;8.23;;;;;;;6.30;94.09;98278.25;5064433;28;20182;-81
2020/12/12 09:19:23;;;;;;;15.25;8.35;;;;;;;6.47;93.15;98292.91;5060714;28;20044;-79
2020/12/12 09:21:50;;;;;;;17.75;8.13;;;;;;;6.51;93.24;98304.13;5059448;28;20434;-77
2020/12/12 09:24:18;;;;;;;16.45;7.82;;;;;;;6.20;93.43;98261.34;5040501;28;20040;-78
2020/12/12 09:26:45;;;;;;;16.17;7.72;;;;;;;6.55;93.36;98308.25;5062999;28;20057;-80
2020/12/12 09:29:13;;;;;;;12.80;7.28;;;;;;;6.48;93.49;98301.72;5061681;28;20056;-81
2020/12/12 09:31:39;;;;;;;14.48;8.10;;;;;;;6.61;93.53;98317.53;5070684;28;20427;-79
2020/12/12 09:34:05;;;;;;;18.98;8.68;;;;;;;6.56;93.24;98304.63;5077484;28;20056;-78
2020/12/12 09:36:31;;;;;;;15.18;8.50;;;;;;;6.72;93.52;98322.03;5056070;28;20060;-78
2020/12/12 09:38:58;;;;;;;19.33;9.10;;;;;;;6.71;93.29;98320.34;5057426;28;20409;-78
2020/12/12 09:41:25;;;;;;;15.13;8.85;;;;;;;6.78;93.30;98329.53;5056342;28;20069;-80
2020/12/12 09:43:51;;;;;;;14.90;8.32;;;;;;;6.82;93.06;98319.53;5057506;28;20052;-79
2020/12/12 09:46:18;;;;;;;16.00;8.70;;;;;;;6.95;92.63;98332.72;5056703;28;20186;-79
2020/12/12 09:48:46;;;;;;;15.55;8.38;;;;;;;6.93;92.86;98338.16;5057766;28;20114;-78
2020/12/12 09:51:14;;;;;;;14.77;9.07;;;;;;;6.97;93.18;98336.94;5057931;28;20473;-79
2020/12/12 09:53:41;;;;;;;23.92;9.10;;;;;;;7.02;92.83;98336.59;5058148;28;20074;-78
2020/12/12 09:56:10;;;;;;;15.57;8.55;;;;;;;7.05;92.09;98334.59;5058158;28;20053;-77
2020/12/12 09:58:36;;;;;;;15.45;7.95;;;;;;;7.11;92.66;98332.41;5057205;28;20048;-79
2020/12/12 10:01:05;;;;;;;14.90;8.43;;;;;;;7.00;92.60;98327.91;5058311;28;20398;-78
2020/12/12 10:03:31;;;;;;;16.88;8.93;;;;;;;7.03;93.04;98344.44;5056820;28;20534;-79
2020/12/12 10:05:58;;;;;;;19.05;8.95;;;;;;;7.03;92.60;98344.44;5058226;28;20059;-78
2020/12/12 10:08:24;;;;;;;19.73;10.10;;;;;;;6.99;92.38;98337.69;5057724;28;20048;-78
2020/12/12 10:10:52;;;;;;;21.30;8.98;;;;;;;7.06;92.80;98348.69;5057735;28;20454;-79
2020/12/12 10:13:18;;;;;;;19.63;9.05;;;;;;;7.13;92.71;98355.19;5058409;28;20053;-77
2020/12/12 10:15:44;;;;;;;17.77;8.57;;;;;;;7.22;92.59;98358.13;5058934;28;20057;-78
2020/12/12 10:18:10;;;;;;;17.50;8.98;;;;;;;7.21;92.25;98359.94;5058897;28;20449;-78
2020/12/12 10:20:37;;;;;;;18.95;9.00;;;;;;;7.28;92.13;98360.31;5058375;28;20487;-77
2020/12/12 10:23:04;;;;;;;19.17;8.75;;;;;;;7.30;91.95;98369.00;5060186;28;20049;-78
2020/12/12 10:25:31;;;;;;;16.35;8.40;;;;;;;7.36;91.65;98365.88;5076741;28;20055;-77
2020/12/12 10:28:07;;;;;;;21.98;9.05;;;;;;;7.34;91.61;98362.50;5078308;28;20055;-77
2020/12/12 10:30:33;;;;;;;18.77;8.77;;;;;;;7.34;91.72;98367.78;5077812;28;20055;-79
2020/12/12 10:33:00;;;;;;;20.30;9.27;;;;;;;7.36;91.39;98365.03;5077906;28;20063;-77
2020/12/12 10:35:30;;;;;;;18.80;9.40;;;;;;;7.48;91.46;98378.19;5077945;28;20126;-77
2020/12/12 10:37:57;;;;;;;23.70;9.60;;;;;;;7.42;91.34;98375.19;5077622;28;20060;-78
2020/12/12 10:40:33;;;;;;;19.45;9.80;;;;;;;7.47;91.71;98379.16;5077492;28;20052;-78
2020/12/12 10:42:59;;;;;;;21.25;10.05;;;;;;;7.42;91.45;98381.31;5077055;28;20487;-77
2020/12/12 10:45:26;;;;;;;19.70;9.98;;;;;;;7.46;91.95;98393.41;5077071;28;20052;-77
2020/12/12 10:47:52;;;;;;;24.00;10.68;;;;;;;7.42;91.60;98397.25;5077300;28;20056;-78
2020/12/12 10:50:18;;;;;;;24.88;10.10;;;;;;;7.47;91.61;98389.78;5077213;28;20109;-78
2020/12/12 10:52:44;;;;;;;20.85;10.13;;;;;;;7.46;91.47;98398.72;5076272;28;20067;-79
2020/12/12 10:55:10;;;;;;;25.13;10.70;;;;;;;7.41;91.40;98400.03;5077396;28;20052;-78
2020/12/12 10:57:36;;;;;;;19.70;9.90;;;;;;;7.38;91.81;98400.25;5076691;28;20082;-78
2020/12/12 11:00:08;;;;;;;20.65;10.15;;;;;;;7.39;91.68;98397.50;5075959;28;20045;-77
2020/12/12 11:02:34;;;;;;;;;;;;;;;7.40;92.38;98396.53;5077313;28;20109;-78
2020/12/12 11:05:02;;;;;;;22.25;11.38;;;;;;;7.38;92.44;98401.13;5076719;28;19920;-77
2020/12/12 11:07:42;;;;;;;24.10;10.68;;;;;;;7.41;91.94;98405.34;5076633;28;20063;-78
2020/12/12 11:10:08;;;;;;;23.02;11.65;;;;;;;7.40;92.70;98399.19;5076518;28;20067;-78
2020/12/12 11:12:34;;;;;;;25.00;12.23;;;;;;;7.55;91.87;98406.94;5076484;28;20434;-79
2020/12/12 11:15:00;;;;;;;29.23;12.18;;;;;;;7.53;92.27;98406.22;5075439;28;20048;-77
2020/12/12 11:17:26;;;;;;;29.08;13.10;;;;;;;7.51;92.26;98413.44;5075775;28;20045;-77
2020/12/12 11:19:52;;;;;;;33.85;13.50;;;;;;;7.67;91.50;98416.59;5076417;28;20397;-78
2020/12/12 11:22:18;;;;;;;31.65;13.30;;;;;;;7.55;91.92;98407.78;5076682;28;20078;-79
2020/12/12 11:24:45;;;;;;;38.83;13.77;;;;;;;7.59;92.33;98416.34;5060068;28;20052;-78
2020/12/12 11:27:11;;;;;;;44.30;16.30;;;;;;;7.63;92.15;98414.31;5056304;28;20056;-77
2020/12/12 11:29:37;;;;;;;38.85;15.07;;;;;;;7.61;92.37;98417.06;5056280;28;20106;-77
2020/12/12 11:32:03;;;;;;;40.05;15.15;;;;;;;7.54;92.44;98415.84;5055329;28;20391;-78
2020/12/12 11:34:43;;;;;;;36.10;13.77;;;;;;;7.56;92.11;98412.13;5055253;28;20107;-79
2020/12/12 11:47:32;;;;;;;30.75;14.23;;;;;;;7.73;92.30;98434.72;5056032;28;20426;-79
2020/12/12 11:49:58;;;;;;;32.40;13.70;;;;;;;7.66;92.10;98433.50;5055718;28;20055;-79
2020/12/12 11:52:25;;;;;;;32.95;15.43;;;;;;;7.63;92.06;98431.06;5055229;28;20060;-79
2020/12/12 11:54:51;;;;;;;28.73;14.25;;;;;;;7.73;91.58;98441.84;5054746;28;20099;-78
2020/12/12 11:57:17;;;;;;;28.15;14.25;;;;;;;7.65;91.83;98444.25;5055848;28;20056;-78
2020/12/12 11:59:44;;;;;;;30.95;14.57;;;;;;;7.73;91.47;98458.63;5055218;28;20373;-78